Tiempo atmosférico en la estación meteorológica de La Rambla, Córdoba (200 m.)



Fecha
DESCASC
Temp. máxima en grados centígrados (hora)
DESCASC
Temp. mínima en grados centígrados (hora)
DESCASC
Temp. media en grados centígrados
DESCASC
Racha de viento máxima en m/sg (hora)
DESCASC
Velocidad máxima media en intervalos de 10 minutos(hora)
DESCASC
Precipitaciones diarias en mm
DESCASC
Precipitaciones de 00:00 a 06:00 en mm
DESCASC
Precipitaciones de 06:00 a 12:00 en mm
DESCASC
Precipitaciones de 12:00 a 18:00 en mm
DESCASC
Precipitaciones de 18:00 a 24:00 en mm
DESCASC
15-08-2019 39.8 (18:10) 20 (07:30) 29.9 6.39 (23:40) 4.17 (18:10) 0 0 0 0 0
14-08-2019 37.8 (17:20) 19.3 (00:00) 28.5 5.56 (17:20) 3.06 (00:20) 0 0 0 0 0
13-08-2019 36.9 (17:20) 16.8 (00:00) 26.9 7.22 (12:20) 4.17 (10:40) 0 0 0 0 0
12-08-2019 34.5 (19:10) 15.3 (00:00) 24.9 8.33 (16:50) 5 (12:00) 0 0 0 0 0
11-08-2019 34.2 (18:40) 16.8 (00:00) 25.5 9.17 (20:50) 6.67 (20:50) 0 0 0 0 0
10-08-2019 36.9 (18:10) 20.2 (00:00) 28.6 9.72 (18:10) 5.83 (18:50) 0 0 0 0 0
09-08-2019 36.8 (17:40) 17 (00:00) 26.9 9.17 (19:10) 5.56 (20:50) 0 0 0 0 0
08-08-2019 39.1 (17:50) 18.7 (00:00) 28.9 9.72 (18:30) 6.67 (20:00) 0 0 0 0 0
07-08-2019 35.8 (18:30) 17.8 (00:00) 26.8 6.11 (18:20) 4.17 (01:10) 0 0 0 0 0
06-08-2019 38.8 (18:10) 16.5 (00:00) 27.6 8.33 (16:50) 5 (00:10) 0 0 0 0 0
05-08-2019 39.5 (18:00) 18.5 (00:00) 29 9.72 (21:40) 6.11 (21:40) 0 0 0 0 0
04-08-2019 38 (18:40) 18 (00:00) 28 7.78 (19:10) 3.89 (16:50) 0 0 0 0 0
03-08-2019 38.1 (17:50) 17 (00:00) 27.5 9.44 (18:50) 5.56 (18:50) 0 0 0 0 0
02-08-2019 39 (18:10) 17.8 (00:00) 28.4 11.11 (17:20) 5.56 (20:20) 0 0 0 0 0
01-08-2019 36.9 (18:30) 20.8 (00:00) 28.9 7.78 (17:10) 4.44 (01:40) 0 0 0 0 0
31-07-2019 37.3 (16:30) 18.9 (00:00) 28.1 9.72 (20:30) 6.67 (20:30) 0 0 0 0 0
30-07-2019 37.6 (17:40) 15.8 (00:00) 26.7 6.39 (16:40) 3.61 (18:00) 0 0 0 0 0
29-07-2019 36.2 (18:30) 17 (00:00) 26.6 6.67 (00:50) 4.72 (01:00) 0 0 0 0 0
28-07-2019 33.5 (18:00) 20.3 (00:00) 26.9 8.61 (17:50) 4.72 (03:20) 0 0 0 0 0
27-07-2019 30.8 (16:30) 15.4 (00:00) 23.1 11.67 (16:50) 7.22 (19:50) 0 0 0 0 0
26-07-2019 33 (15:50) 19.2 (00:00) 26.1 11.11 (20:10) 7.5 (20:30) 0 0 0 0 0
25-07-2019 38.9 (17:10) 20.3 (00:00) 29.6 11.11 (20:30) 6.39 (19:30) 0 0 0 0 0
24-07-2019 40 (17:20) 21 (00:00) 30.5 10.28 (18:00) 5.83 (18:00) 0 0 0 0 0
23-07-2019 40.3 (17:00) 21.7 (00:00) 31 11.11 (17:30) 7.22 (17:10) 0 0 0 0 0
22-07-2019 39.6 (19:10) 21.9 (00:00) 30.7 7.5 (16:00) 4.17 (23:20) 0 0 0 0 0
21-07-2019 39.9 (18:20) 21.2 (00:00) 30.6 7.5 (22:10) 5 (23:00) 0 0 0 0 0
20-07-2019 40 (18:00) 20.1 (00:00) 30.1 6.11 (14:50) 3.61 (23:59) 0 0 0 0 0
19-07-2019 40.4 (18:00) 19.2 (00:00) 29.8 9.44 (20:00) 6.39 (20:00) 0 0 0 0 0

Gráficas

Temp. máximas Temp. mínimas Temp. medias Precipitaciones Rachas de viento máximas Velocidades máximas media en intervalos de 10 minutos

Datos horarios

Fecha y hora oficial Temperatura (ºC) Velocidad del viento (km/h) Dirección del viento Racha (km/h) Dirección de racha Precipitación (mm) Presión (hPa) Tendencia (hPa) Humedad (%)
2019-08-17 23:00:00 30.2 12 Sudoeste 19 Sudoeste 0 -- -- 33
2019-08-17 22:00:00 32.6 4 Sur 21 Sur 0 -- -- 29
2019-08-17 21:00:00 36.7 5 Sudoeste 28 Oeste 0 -- -- 25
2019-08-17 20:00:00 39.9 15 Oeste 25 Oeste 0 -- -- 21
2019-08-17 19:00:00 40.7 17 Sudoeste 28 Sudoeste 0 -- -- 20
2019-08-17 18:00:00 41.4 12 Sudoeste 27 Sudoeste 0 -- -- 21
2019-08-17 17:00:00 41.3 15 Sudoeste 42 Sur 0 -- -- 21
2019-08-17 16:00:00 39.8 9 Noroeste 24 Sur 0 -- -- 22
2019-08-17 15:00:00 39.5 10 Sudoeste 21 Sudoeste 0 -- -- 22
2019-08-17 14:00:00 38 10 Sudoeste 20 Sudoeste 0 -- -- 21
2019-08-17 13:00:00 35.7 5 Oeste 14 Norte 0 -- -- 28
2019-08-17 12:00:00 33.3 3 Noroeste 17 Norte 0 -- -- 31
2019-08-17 11:00:00 30.8 10 Norte 16 Norte 0 -- -- 35
2019-08-17 10:00:00 28 8 Norte 14 Norte 0 -- -- 40
2019-08-17 09:00:00 23.1 5 Norte 11 Noroeste 0 -- -- 47
2019-08-17 08:00:00 19.9 3 Norte 4 Norte 0 -- -- 49
2019-08-17 07:00:00 20.6 3 Nordeste 5 Norte 0 -- -- 47
2019-08-17 06:00:00 21.1 3 Norte 5 Norte 0 -- -- 47
2019-08-17 05:00:00 21.5 2 Norte 7 Sudoeste 0 -- -- 49
2019-08-17 04:00:00 22.5 3 Oeste 6 Sur 0 -- -- 50
2019-08-17 03:00:00 23.9 0 Calma 8 Sur 0 -- -- 47
2019-08-17 02:00:00 25.1 4 Sur 9 Sur 0 -- -- 45
2019-08-17 01:00:00 26.9 2 Oeste 14 Sur 0 -- -- 42
2019-08-17 00:00:00 28.2 12 Sur 17 Sur 0 -- -- 39
2019-08-16 23:00:00 30.1 12 Sur 20 Sudoeste 0 -- -- 36
2019-08-16 22:00:00 32.5 3 Sur 11 Oeste 0 -- -- 31
2019-08-16 21:00:00 36.5 8 Oeste 23 Sudoeste 0 -- -- 27
2019-08-16 20:00:00 38.8 11 Oeste 26 Oeste 0 -- -- 24
2019-08-16 19:00:00 39.7 14 Oeste 30 Sudoeste 0 -- -- 23
2019-08-16 18:00:00 40 10 Sudoeste 26 Sudoeste 0 -- -- 23
2019-08-16 17:00:00 40.3 13 Sudoeste 26 Sur 0 -- -- 23
2019-08-16 16:00:00 39.6 14 Sudoeste 26 Sudoeste 0 -- -- 24
2019-08-16 15:00:00 37.8 12 Sudoeste 26 Sudoeste 0 -- -- 26
2019-08-16 14:00:00 36.4 10 Sudoeste 22 Sudoeste 0 -- -- 27
2019-08-16 13:00:00 34.8 8 Sudoeste 17 Oeste 0 -- -- 30
2019-08-16 12:00:00 32.9 7 Sudoeste 14 Sudoeste 0 -- -- 34
2019-08-16 11:00:00 30.8 4 Sudoeste 9 Oeste 0 -- -- 36
2019-08-16 10:00:00 28.3 4 Sudoeste 6 Sur 0 -- -- 41
2019-08-16 09:00:00 22.7 3 Norte 5 Norte 0 -- -- 53
2019-08-16 08:00:00 20.2 0 Calma 6 Norte 0 -- -- 55
2019-08-16 07:00:00 21.3 4 Norte 5 Norte 0 -- -- 51
2019-08-16 06:00:00 21.4 2 Norte 5 Sudeste 0 -- -- 52
2019-08-16 05:00:00 21.9 6 Sudeste 7 Sudeste 0 -- -- 55
2019-08-16 04:00:00 22.6 5 Sudoeste 8 Sudoeste 0 -- -- 55
2019-08-16 03:00:00 23.5 6 Sudoeste 10 Sudoeste 0 -- -- 55
2019-08-16 02:00:00 25.6 5 Sur 14 Sur 0 -- -- 51
2019-08-16 01:00:00 27.1 8 Sur 13 Sur 0 -- -- 46
2019-08-16 00:00:00 28.6 8 Sur 23 Sudoeste 0 -- -- 42
2019-08-15 23:00:00 29.4 4 Sur 19 Oeste 0 -- -- 35
2019-08-15 22:00:00 31.3 10 Sur 16 Sudeste 0 -- -- 30
2019-08-15 21:00:00 35 8 Sur 14 Sudoeste 0 -- -- 25
2019-08-15 20:00:00 38.1 10 Sudoeste 18 Sur 0 -- -- 21
2019-08-15 19:00:00 39.3 10 Sur 22 Sur 0 -- -- 21
2019-08-15 18:00:00 39.7 10 Sudoeste 22 Sur 0 -- -- 22
2019-08-15 17:00:00 39.4 9 Sur 22 Sur 0 -- -- 23
2019-08-15 16:00:00 38.5 8 Sur 18 Sudoeste 0 -- -- 24
2019-08-15 15:00:00 37.4 6 Sudeste 19 Sudoeste 0 -- -- 26
2019-08-15 14:00:00 36 8 Oeste 15 Sudoeste 0 -- -- 29
2019-08-15 13:00:00 34.6 5 Sudoeste 12 Sudoeste 0 -- -- 31
2019-08-15 12:00:00 31.8 4 Norte 8 Nordeste 0 -- -- 40
2019-08-15 11:00:00 29.9 3 Noroeste 8 Sur 0 -- -- 46
2019-08-15 10:00:00 27.6 0 Calma 4 Este 0 -- -- 55
2019-08-15 09:00:00 22 0 Calma 6 Norte 0 -- -- 65
2019-08-15 08:00:00 20 3 Norte 6 Norte 0 -- -- 62
2019-08-15 07:00:00 20.4 4 Norte 6 Norte 0 -- -- 59
2019-08-15 06:00:00 20.3 4 Este 8 Este 0 -- -- 61
2019-08-15 05:00:00 20.8 6 Este 9 Este 0 -- -- 52
2019-08-15 04:00:00 21.4 2 Este 4 Sudoeste 0 -- -- 54
2019-08-15 03:00:00 22.9 2 Sur 5 Sudeste 0 -- -- 55
2019-08-15 02:00:00 24.1 2 Sudeste 4 Este 0 -- -- 50
2019-08-15 01:00:00 25.3 0 Calma 8 Sur 0 -- -- 42
2019-08-15 00:00:00 25.7 3 Sudoeste 6 Sudoeste 0 -- -- 37
2019-08-14 23:00:00 27.5 2 Noroeste 10 Sur 0 -- -- 34
2019-08-14 22:00:00 29.6 4 Este 7 Sudoeste 0 -- -- 31
2019-08-14 21:00:00 33.8 6 Sur 15 Sur 0 -- -- 31
2019-08-14 20:00:00 36.4 10 Sudoeste 17 Sudoeste 0 -- -- 25
2019-08-14 19:00:00 37.5 9 Sur 16 Sudoeste 0 -- -- 24
2019-08-14 18:00:00 37.5 5 Sudeste 20 Sudoeste 0 -- -- 24
2019-08-14 17:00:00 37.5 9 Sur 20 Sur 0 -- -- 24
2019-08-14 16:00:00 36.5 9 Sudoeste 19 Noroeste 0 -- -- 25
2019-08-14 15:00:00 35.2 8 Oeste 18 Sudoeste 0 -- -- 32
2019-08-14 14:00:00 34.7 10 Sur 19 Sur 0 -- -- 36
2019-08-14 13:00:00 32.2 4 Sudoeste 15 Este 0 -- -- 40
2019-08-14 12:00:00 30.5 5 Sur 13 Sur 0 -- -- 49
2019-08-14 11:00:00 29 6 Sudeste 15 Sur 0 -- -- 57
2019-08-14 10:00:00 26.6 7 Sur 13 Sudoeste 0 -- -- 67
2019-08-14 09:00:00 22.4 0 Calma 4 Norte 0 -- -- 76
2019-08-14 08:00:00 19.9 3 Norte 6 Norte 0 -- -- 72
2019-08-14 07:00:00 19.3 2 Este 4 Sudeste 0 -- -- 75
2019-08-14 06:00:00 19.6 3 Este 5 Este 0 -- -- 77
2019-08-14 05:00:00 20.2 3 Sur 6 Sudoeste 0 -- -- 75
2019-08-14 04:00:00 20.9 4 Sudoeste 11 Sur 0 -- -- 72
2019-08-14 03:00:00 21.9 8 Sudoeste 11 Sur 0 -- -- 63
2019-08-14 02:00:00 22.5 3 Sur 9 Sudoeste 0 -- -- 60
2019-08-14 01:00:00 24.3 8 Sur 17 Sur 0 -- -- 56
2019-08-14 00:00:00 26.2 9 Sur 15 Sur 0 -- -- 58
2019-08-13 23:00:00 28.1 9 Sur 20 Sur 0 -- -- 53
2019-08-13 22:00:00 29.7 9 Sur 16 Sur 0 -- -- 41
2019-08-13 21:00:00 32.9 6 Sur 13 Sudoeste 0 -- -- 29
2019-08-13 20:00:00 35.2 6 Sudoeste 14 Sudoeste 0 -- -- 26
2019-08-13 19:00:00 35.7 8 Sudoeste 22 Oeste 0 -- -- 23
2019-08-13 18:00:00 36.5 11 Sudoeste 20 Sudoeste 0 -- -- 24
2019-08-13 17:00:00 36.2 9 Sudoeste 17 Noroeste 0 -- -- 24
2019-08-13 16:00:00 35.5 10 Sudoeste 22 Noroeste 0 -- -- 26
2019-08-13 15:00:00 34.4 9 Oeste 22 Sudeste 0 -- -- 31
2019-08-13 14:00:00 33.4 5 Sudoeste 20 Sur 0 -- -- 33
2019-08-13 13:00:00 32.4 7 Sudoeste 26 Sudoeste 0 -- -- 37
2019-08-13 12:00:00 30.8 9 Sudoeste 20 Sur 0 -- -- 42
2019-08-13 11:00:00 29 12 Sur 23 Sur 0 -- -- 42
2019-08-13 10:00:00 25.7 4 Norte 7 Norte 0 -- -- 35
2019-08-13 09:00:00 19.7 2 Este 8 Norte 0 -- -- 46
2019-08-13 08:00:00 16.9 4 Norte 9 Norte 0 -- -- 39
2019-08-13 07:00:00 17.2 5 Norte 8 Norte 0 -- -- 38
2019-08-13 06:00:00 16.9 6 Norte 8 Norte 0 -- -- 38
2019-08-13 05:00:00 17.6 4 Norte 6 Norte 0 -- -- 37
2019-08-13 04:00:00 19.4 4 Norte 5 Norte 0 -- -- 34
2019-08-13 03:00:00 21.3 2 Norte 5 Este 0 -- -- 31
2019-08-13 02:00:00 21.7 3 Sudeste 9 Sudeste 0 -- -- 32
2019-08-13 01:00:00 22.1 2 Norte 11 Sudoeste 0 -- -- 31
2019-08-13 00:00:00 22.6 3 Sudeste 7 Este 0 -- -- 25
2019-08-12 23:00:00 24.7 5 Sudeste 8 Sudeste 0 -- -- 23
2019-08-12 22:00:00 27.8 5 Noroeste 12 Oeste 0 -- -- 20
2019-08-12 21:00:00 30.7 4 Oeste 13 Noroeste 0 -- -- 20
2019-08-12 20:00:00 33.6 5 Norte 18 Noroeste 0 -- -- 18
2019-08-12 19:00:00 34.3 6 Nordeste 21 Norte 0 -- -- 18
2019-08-12 18:00:00 34 8 Noroeste 24 Este 0 -- -- 18
2019-08-12 17:00:00 33.8 8 Este 30 Norte 0 -- -- 17
2019-08-12 16:00:00 32.8 8 Este 27 Nordeste 0 -- -- 19
2019-08-12 15:00:00 32.1 10 Nordeste 27 Norte 0 -- -- 21
2019-08-12 14:00:00 30.8 10 Norte 27 Norte 0 -- -- 23
2019-08-12 13:00:00 28.8 11 Norte 27 Norte 0 -- -- 26
2019-08-12 12:00:00 27.4 18 Nordeste 28 Nordeste 0 -- -- 29
2019-08-12 11:00:00 25.4 10 Norte 21 Norte 0 -- -- 33
2019-08-12 10:00:00 23.7 8 Nordeste 15 Nordeste 0 -- -- 36
2019-08-12 09:00:00 17.6 2 Sudoeste 3 Sudoeste 0 -- -- 44
2019-08-12 08:00:00 16.3 0 Calma 5 Noroeste 0 -- -- 43
2019-08-12 07:00:00 17.8 3 Norte 9 Norte 0 -- -- 37
2019-08-12 06:00:00 15.3 3 Norte 6 Norte 0 -- -- 42
2019-08-12 05:00:00 15.9 0 Calma 8 Noroeste 0 -- -- 39
2019-08-12 04:00:00 16.6 3 Nordeste 6 Este 0 -- -- 39
2019-08-12 03:00:00 17.7 4 Nordeste 5 Norte 0 -- -- 35
2019-08-12 02:00:00 18.8 3 Este 7 Este 0 -- -- 34
2019-08-12 01:00:00 20.9 2 Nordeste 13 Norte 0 -- -- 31
2019-08-12 00:00:00 24.6 9 Noroeste 23 Noroeste 0 -- -- 27
2019-08-11 23:00:00 26.7 15 Noroeste 23 Noroeste 0 -- -- 24
2019-08-11 22:00:00 28.6 12 Noroeste 30 Noroeste 0 -- -- 21
2019-08-11 21:00:00 31 21 Noroeste 33 Noroeste 0 -- -- 20
2019-08-11 20:00:00 32.9 11 Oeste 28 Oeste 0 -- -- 22
2019-08-11 19:00:00 33.7 8 Sudoeste 27 Oeste 0 -- -- 21
2019-08-11 18:00:00 33.8 13 Oeste 25 Oeste 0 -- -- 21
2019-08-11 17:00:00 34.1 11 Oeste 25 Sudoeste 0 -- -- 24
2019-08-11 16:00:00 33.7 12 Sudoeste 22 Noroeste 0 -- -- 21
2019-08-11 15:00:00 32.2 9 Noroeste 22 Sudoeste 0 -- -- 22
2019-08-11 14:00:00 31.5 14 Noroeste 28 Oeste 0 -- -- 18
2019-08-11 13:00:00 30.5 9 Sudoeste 18 Sur 0 -- -- 32
2019-08-11 12:00:00 27.5 8 Oeste 17 Sudoeste 0 -- -- 40
2019-08-11 11:00:00 25.8 12 Noroeste 17 Oeste 0 -- -- 43
2019-08-11 10:00:00 23.8 3 Sudoeste 8 Sur 0 -- -- 50
2019-08-11 09:00:00 19.5 2 Sudeste 5 Este 0 -- -- 60
2019-08-11 08:00:00 17.2 3 Noroeste 5 Norte 0 -- -- 57
2019-08-11 07:00:00 17.2 3 Nordeste 8 Este 0 -- -- 59
2019-08-11 06:00:00 18 0 Calma 9 Sudeste 0 -- -- 59
2019-08-11 05:00:00 19 4 Sudeste 10 Sudoeste 0 -- -- 57
2019-08-11 04:00:00 20.7 7 Sudoeste 12 Sudoeste 0 -- -- 54
2019-08-11 03:00:00 22 11 Sudoeste 17 Sudoeste 0 -- -- 51
2019-08-11 02:00:00 23.2 14 Sudoeste 27 Sudoeste 0 -- -- 48
2019-08-11 01:00:00 24.6 19 Sudoeste 23 Sudoeste 0 -- -- 46
2019-08-11 00:00:00 26.8 12 Sudoeste 24 Sur 0 -- -- 45
2019-08-10 23:00:00 29.2 17 Sudoeste 25 Sudoeste 0 -- -- 41
2019-08-10 22:00:00 30.8 13 Sudoeste 23 Oeste 0 -- -- 40
2019-08-10 21:00:00 34.1 15 Oeste 24 Oeste 0 -- -- 36
2019-08-10 20:00:00 35.6 14 Sudoeste 28 Sudoeste 0 -- -- 34
2019-08-10 19:00:00 36.5 15 Sudoeste 35 Sudoeste 0 -- -- 33
2019-08-10 18:00:00 36.7 15 Sudoeste 30 Sudoeste 0 -- -- 34
2019-08-10 17:00:00 36.6 12 Sur 30 Sudoeste 0 -- -- 36
2019-08-10 16:00:00 35.5 11 Sudoeste 24 Sudoeste 0 -- -- 39
2019-08-10 15:00:00 34.5 12 Sudoeste 18 Oeste 0 -- -- 41
2019-08-10 14:00:00 32.8 5 Sudoeste 21 Norte 0 -- -- 46
2019-08-10 13:00:00 31.1 5 Norte 14 Norte 0 -- -- 50
2019-08-10 12:00:00 29.4 4 Noroeste 15 Este 0 -- -- 54
2019-08-10 11:00:00 27.5 7 Nordeste 13 Sudeste 0 -- -- 58
2019-08-10 10:00:00 26 5 Este 11 Nordeste 0 -- -- 66
2019-08-10 09:00:00 22.6 2 Este 5 Sudeste 0 -- -- 81
2019-08-10 08:00:00 20.5 3 Norte 5 Norte 0 -- -- 78
2019-08-10 07:00:00 20.3 3 Sudeste 5 Sur 0 -- -- 81
2019-08-10 06:00:00 21.2 3 Sudeste 7 Sur 0 -- -- 80
2019-08-10 05:00:00 22 3 Sur 10 Sur 0 -- -- 80
2019-08-10 04:00:00 22.6 7 Sur 12 Sur 0 -- -- 78
2019-08-10 03:00:00 23.5 9 Sudoeste 17 Sur 0 -- -- 76
2019-08-10 02:00:00 24.2 11 Sudoeste 15 Sur 0 -- -- 73
2019-08-10 01:00:00 25 9 Sur 18 Sudoeste 0 -- -- 69
2019-08-10 00:00:00 26.1 13 Sudoeste 25 Sudoeste 0 -- -- 62
2019-08-09 23:00:00 27.7 15 Sudoeste 26 Sudoeste 0 -- -- 58
2019-08-09 22:00:00 29.9 13 Sudoeste 28 Sudoeste 0 -- -- 50
2019-08-09 21:00:00 32.6 19 Sudoeste 26 Sudoeste 0 -- -- 40
2019-08-09 20:00:00 34.8 17 Sudoeste 33 Sudoeste 0 -- -- 34
2019-08-09 19:00:00 36.1 19 Sudoeste 33 Sudoeste 0 -- -- 32
2019-08-09 18:00:00 36.8 17 Sudoeste 31 Sudoeste 0 -- -- 33
2019-08-09 17:00:00 36.7 16 Sudoeste 30 Sudoeste 0 -- -- 33
2019-08-09 16:00:00 35.7 13 Sudoeste 28 Sudoeste 0 -- -- 36
2019-08-09 15:00:00 34.4 10 Sudoeste 26 Sudoeste 0 -- -- 38
2019-08-09 14:00:00 32.7 11 Oeste 24 Sudoeste 0 -- -- 43
2019-08-09 13:00:00 30.9 9 Sudoeste 20 Sudoeste 0 -- -- 46
2019-08-09 12:00:00 28.3 6 Sudoeste 15 Sudoeste 0 -- -- 53
2019-08-09 11:00:00 26.3 8 Sur 18 Sur 0 -- -- 57
2019-08-09 10:00:00 24.3 10 Sudoeste 15 Sudoeste 0 -- -- 64
2019-08-09 09:00:00 20.9 3 Sudoeste 8 Sudoeste 0 -- -- 70
2019-08-09 08:00:00 17.3 2 Norte 6 Este 0 -- -- 64
2019-08-09 07:00:00 17.5 0 Calma 4 Este 0 -- -- 63
2019-08-09 06:00:00 17.8 3 Este 6 Sudeste 0 -- -- 65
2019-08-09 05:00:00 18.7 0 Calma 5 Sur 0 -- -- 61
2019-08-09 04:00:00 19.7 4 Sur 9 Sur 0 -- -- 66
2019-08-09 03:00:00 20.7 3 Sur 18 Sudoeste 0 -- -- 63
2019-08-09 02:00:00 21.7 12 Sudoeste 26 Sudoeste 0 -- -- 59
2019-08-09 01:00:00 24.1 16 Sur 21 Sudoeste 0 -- -- 50
2019-08-09 00:00:00 26.2 12 Sudoeste 18 Sur 0 -- -- 42
2019-08-08 23:00:00 28 8 Sudeste 15 Sudeste 0 -- -- 40
2019-08-08 22:00:00 30 5 Sur 18 Sudoeste 0 -- -- 32
2019-08-08 21:00:00 33.6 10 Sudoeste 31 Sudoeste 0 -- -- 26
2019-08-08 20:00:00 36.4 24 Sudoeste 33 Sudoeste 0 -- -- 21
2019-08-08 19:00:00 38.2 20 Sudoeste 35 Sudoeste 0 -- -- 21
2019-08-08 18:00:00 39.1 19 Sudoeste 33 Sudoeste 0 -- -- 20
2019-08-08 17:00:00 38.4 16 Sudoeste 33 Sudoeste 0 -- -- 23
2019-08-08 16:00:00 37.5 12 Sudoeste 25 Sur 0 -- -- 23
2019-08-08 15:00:00 36.5 12 Sur 21 Sur 0 -- -- 28
2019-08-08 14:00:00 34.6 7 Sudoeste 17 Sur 0 -- -- 32
2019-08-08 13:00:00 33.1 5 Sudoeste 14 Sudeste 0 -- -- 37
2019-08-08 12:00:00 30.8 4 Este 12 Este 0 -- -- 41
2019-08-08 11:00:00 27.8 3 Sudoeste 9 Sur 0 -- -- 51
2019-08-08 10:00:00 25.9 5 Sur 11 Sur 0 -- -- 56
2019-08-08 09:00:00 21.5 0 Calma 4 Este 0 -- -- 65
2019-08-08 08:00:00 18.7 2 Este 4 Norte 0 -- -- 62
2019-08-08 07:00:00 19.5 3 Norte 5 Norte 0 -- -- 61
2019-08-08 06:00:00 19.5 0 Calma 4 Este 0 -- -- 61
2019-08-08 05:00:00 21 0 Calma 6 Sur 0 -- -- 61
2019-08-08 04:00:00 22.2 4 Sur 7 Sur 0 -- -- 61
2019-08-08 03:00:00 23.5 4 Sur 12 Sur 0 -- -- 57
2019-08-08 02:00:00 25 7 Sur 10 Sur 0 -- -- 52
2019-08-08 01:00:00 26.6 2 Sur 6 Sudoeste 0 -- -- 43
2019-08-08 00:00:00 28.7 8 Sudoeste 15 Noroeste 0 -- -- 40
2019-08-07 23:00:00 30.9 10 Noroeste 19 Oeste 0 -- -- 38
2019-08-07 22:00:00 32.2 12 Oeste 18 Oeste 0 -- -- 35
2019-08-07 21:00:00 33.4 6 Oeste 11 Oeste 0 -- -- 32
2019-08-07 20:00:00 34.6 3 Sudoeste 17 Oeste 0 -- -- 30
2019-08-07 19:00:00 35.5 9 Oeste 22 Noroeste 0 -- -- 29
2019-08-07 18:00:00 34.6 11 Noroeste 20 Sudoeste 0 -- -- 31
2019-08-07 17:00:00 34.9 9 Oeste 21 Noroeste 0 -- -- 29
2019-08-07 16:00:00 33.9 10 Sudoeste 19 Sur 0 -- -- 31
2019-08-07 15:00:00 33.6 7 Sudoeste 22 Sudoeste 0 -- -- 33
2019-08-07 14:00:00 33.3 12 Sur 19 Sur 0 -- -- 36
2019-08-07 13:00:00 31.5 4 Sur 12 Sudoeste 0 -- -- 39
2019-08-07 12:00:00 29.3 5 Sur 12 Sudoeste 0 -- -- 43
2019-08-07 11:00:00 27.2 6 Sudoeste 12 Sudoeste 0 -- -- 46
2019-08-07 10:00:00 25.7 5 Sudoeste 9 Sudoeste 0 -- -- 49
2019-08-07 09:00:00 21.1 0 Calma 4 Nordeste 0 -- -- 49
2019-08-07 08:00:00 17.9 2 Norte 5 Norte 0 -- -- 47
2019-08-07 07:00:00 18.3 2 Norte 4 Norte 0 -- -- 47
2019-08-07 06:00:00 18.3 0 Calma 3 Norte 0 -- -- 50
2019-08-07 05:00:00 19.1 2 Este 5 Nordeste 0 -- -- 47
2019-08-07 04:00:00 19.7 4 Sudeste 13 Sudoeste 0 -- -- 48
2019-08-07 03:00:00 21.1 9 Sudoeste 16 Sur 0 -- -- 48
2019-08-07 02:00:00 23 12 Sur 18 Sur 0 -- -- 45
2019-08-07 01:00:00 23.4 13 Sur 17 Sur 0 -- -- 40
2019-08-07 00:00:00 24.7 11 Sur 15 Sur 0 -- -- 33
2019-08-06 23:00:00 26.7 10 Sur 15 Sur 0 -- -- 28
2019-08-06 22:00:00 29.4 7 Sur 10 Sur 0 -- -- 21
2019-08-06 21:00:00 34.8 7 Oeste 26 Oeste 0 -- -- 18
2019-08-06 20:00:00 37.4 15 Oeste 27 Oeste 0 -- -- 19
2019-08-06 19:00:00 38.5 12 Oeste 28 Oeste 0 -- -- 18
2019-08-06 18:00:00 38.7 12 Sudoeste 28 Oeste 0 -- -- 17
2019-08-06 17:00:00 38.3 9 Sudoeste 30 Sudoeste 0 -- -- 19
2019-08-06 16:00:00 37.7 15 Sudoeste 25 Sudoeste 0 -- -- 20
2019-08-06 15:00:00 36.3 10 Sudoeste 23 Sudoeste 0 -- -- 24
2019-08-06 14:00:00 34.9 9 Sudoeste 21 Sudoeste 0 -- -- 27
2019-08-06 13:00:00 32.9 3 Oeste 13 Sudoeste 0 -- -- 29
2019-08-06 12:00:00 31 4 Sudeste 10 Sur 0 -- -- 32
2019-08-06 11:00:00 28 3 Noroeste 8 Norte 0 -- -- 36
2019-08-06 10:00:00 25.9 2 Norte 10 Nordeste 0 -- -- 40
2019-08-06 09:00:00 21.8 6 Norte 9 Nordeste 0 -- -- 46
2019-08-06 08:00:00 17 3 Norte 6 Norte 0 -- -- 51
2019-08-06 07:00:00 16.8 2 Este 5 Este 0 -- -- 52
2019-08-06 06:00:00 17.7 0 Calma 7 Este 0 -- -- 49
2019-08-06 05:00:00 18.8 0 Calma 4 Sudoeste 0 -- -- 49
2019-08-06 04:00:00 19.8 2 Sur 11 Sudeste 0 -- -- 49
2019-08-06 03:00:00 21.1 5 Sur 10 Sur 0 -- -- 46
2019-08-06 02:00:00 23.1 5 Este 19 Sudoeste 0 -- -- 43
2019-08-06 01:00:00 24.6 12 Sur 28 Sur 0 -- -- 42
2019-08-06 00:00:00 26.7 17 Sudoeste 27 Sudoeste 0 -- -- 41
2019-08-05 23:00:00 28.6 17 Sudoeste 28 Sudoeste 0 -- -- 36
2019-08-05 22:00:00 31.3 21 Sudoeste 35 Sudoeste 0 -- -- 32
2019-08-05 21:00:00 34.7 20 Sudoeste 30 Sudoeste 0 -- -- 28
2019-08-05 20:00:00 37.5 15 Sudoeste 29 Sudoeste 0 -- -- 21
2019-08-05 19:00:00 38.8 17 Sudoeste 33 Sudoeste 0 -- -- 22
2019-08-05 18:00:00 39.5 17 Sudoeste 33 Oeste 0 -- -- 23
2019-08-05 17:00:00 39.2 15 Sudoeste 28 Sudoeste 0 -- -- 25
2019-08-05 16:00:00 38.5 15 Sudoeste 28 Sudoeste 0 -- -- 28
2019-08-05 15:00:00 37.8 14 Sudoeste 25 Sudoeste 0 -- -- 28
2019-08-05 14:00:00 35.9 6 Sur 17 Sudoeste 0 -- -- 29
2019-08-05 13:00:00 33.5 8 Oeste 14 Sudoeste 0 -- -- 35
2019-08-05 12:00:00 31.7 6 Sudoeste 13 Sudoeste 0 -- -- 37
2019-08-05 11:00:00 29.4 3 Este 9 Norte 0 -- -- 42
2019-08-05 10:00:00 27.1 3 Nordeste 8 Norte 0 -- -- 47
2019-08-05 09:00:00 22.3 0 Calma 2 Este 0 -- -- 56
2019-08-05 08:00:00 18.7 0 Calma 7 Norte 0 -- -- 61
2019-08-05 07:00:00 18.7 2 Nordeste 6 Norte 0 -- -- 58
2019-08-05 06:00:00 19.7 4 Norte 6 Norte 0 -- -- 54
2019-08-05 05:00:00 19.8 0 Calma 4 Nordeste 0 -- -- 54
2019-08-05 04:00:00 20.6 2 Nordeste 8 Sudeste 0 -- -- 56
2019-08-05 03:00:00 21.7 5 Sudeste 9 Sudeste 0 -- -- 54
2019-08-05 02:00:00 23 6 Sur 11 Sur 0 -- -- 55
2019-08-05 01:00:00 24 10 Sur 16 Sudoeste 0 -- -- 52
2019-08-05 00:00:00 26.1 10 Sur 19 Sudoeste 0 -- -- 44
2019-08-04 23:00:00 28.3 12 Sudoeste 21 Sudoeste 0 -- -- 41
2019-08-04 22:00:00 30.1 6 Sur 12 Sudoeste 0 -- -- 31
2019-08-04 21:00:00 34.7 10 Sudoeste 23 Oeste 0 -- -- 24
2019-08-04 20:00:00 37.3 13 Oeste 28 Oeste 0 -- -- 22
2019-08-04 19:00:00 37.9 11 Oeste 27 Oeste 0 -- -- 26
2019-08-04 18:00:00 37.9 14 Oeste 26 Oeste 0 -- -- 26
2019-08-04 17:00:00 37.9 9 Sudoeste 27 Sudoeste 0 -- -- 28
2019-08-04 16:00:00 36.9 12 Oeste 21 Oeste 0 -- -- 31
2019-08-04 15:00:00 35.7 12 Sudoeste 21 Sudoeste 0 -- -- 31
2019-08-04 14:00:00 33.7 9 Sur 19 Sur 0 -- -- 33
2019-08-04 13:00:00 31.2 8 Sudoeste 18 Sur 0 -- -- 36
2019-08-04 12:00:00 29 7 Sudoeste 16 Sudoeste 0 -- -- 41
2019-08-04 11:00:00 27.2 10 Sur 15 Sudoeste 0 -- -- 46
2019-08-04 10:00:00 25.3 6 Sur 10 Sur 0 -- -- 50
2019-08-04 09:00:00 21.8 0 Calma 4 Este 0 -- -- 56
2019-08-04 08:00:00 18.2 0 Calma 4 Este 0 -- -- 57
2019-08-04 07:00:00 18.1 0 Calma 4 Este 0 -- -- 58
2019-08-04 06:00:00 19 4 Este 6 Este 0 -- -- 57
2019-08-04 05:00:00 20.1 0 Calma 7 Sudoeste 0 -- -- 57
2019-08-04 04:00:00 20.4 0 Calma 5 Sur 0 -- -- 58
2019-08-04 03:00:00 21.4 0 Calma 8 Sudoeste 0 -- -- 55
2019-08-04 02:00:00 23 3 Sudoeste 17 Sudoeste 0 -- -- 51
2019-08-04 01:00:00 24.5 11 Sur 20 Sudoeste 0 -- -- 45
2019-08-04 00:00:00 25.6 8 Sur 12 Sur 0 -- -- 40
2019-08-03 23:00:00 27.5 6 Sur 15 Sudoeste 0 -- -- 37
2019-08-03 22:00:00 29.5 12 Sudoeste 21 Sudoeste 0 -- -- 34
2019-08-03 21:00:00 33.6 14 Sudoeste 26 Sudoeste 0 -- -- 28
2019-08-03 20:00:00 36.1 15 Oeste 30 Sudoeste 0 -- -- 27
2019-08-03 19:00:00 36.9 19 Sudoeste 34 Sudoeste 0 -- -- 26
2019-08-03 18:00:00 38.1 12 Sudoeste 30 Sudoeste 0 -- -- 24
2019-08-03 17:00:00 37.8 15 Sudoeste 28 Sudoeste 0 -- -- 24
2019-08-03 16:00:00 37.5 14 Sudoeste 28 Sudoeste 0 -- -- 27
2019-08-03 15:00:00 36.2 13 Sudoeste 24 Sudoeste 0 -- -- 32
2019-08-03 14:00:00 34.8 12 Sudoeste 24 Sudoeste 0 -- -- 33
2019-08-03 13:00:00 32.9 7 Sudoeste 15 Sudoeste 0 -- -- 26
2019-08-03 12:00:00 30.8 10 Sur 15 Sudoeste 0 -- -- 30
2019-08-03 11:00:00 28.1 5 Sudoeste 12 Sur 0 -- -- 34
2019-08-03 10:00:00 26.3 3 Sudoeste 6 Sudoeste 0 -- -- 36
2019-08-03 09:00:00 21.6 3 Norte 6 Norte 0 -- -- 38
2019-08-03 08:00:00 17.3 0 Calma 6 Norte 0 -- -- 44
2019-08-03 07:00:00 17.3 3 Norte 4 Norte 0 -- -- 42
2019-08-03 06:00:00 18.5 3 Norte 5 Norte 0 -- -- 40
2019-08-03 05:00:00 18.7 3 Sudeste 8 Sudeste 0 -- -- 40
2019-08-03 04:00:00 19.1 3 Sudeste 7 Este 0 -- -- 39
2019-08-03 03:00:00 20.9 2 Sudoeste 6 Sudoeste 0 -- -- 38
2019-08-03 02:00:00 22.7 0 Calma 6 Sudeste 0 -- -- 36
2019-08-03 01:00:00 24.3 5 Sudeste 21 Sudoeste 0 -- -- 34
2019-08-03 00:00:00 25.7 15 Sudoeste 22 Sur 0 -- -- 30
2019-08-02 23:00:00 27.8 10 Sur 15 Sudoeste 0 -- -- 30
2019-08-02 22:00:00 31.1 5 Sudoeste 23 Oeste 0 -- -- 26
2019-08-02 21:00:00 35.4 14 Oeste 28 Oeste 0 -- -- 22
2019-08-02 20:00:00 37.4 16 Oeste 33 Sudoeste 0 -- -- 22
2019-08-02 19:00:00 38.5 11 Oeste 37 Sur 0 -- -- 20
2019-08-02 18:00:00 38.8 14 Sur 40 Sudoeste 0 -- -- 21
2019-08-02 17:00:00 38.7 12 Sudoeste 31 Sudoeste 0 -- -- 21
2019-08-02 16:00:00 38.3 13 Sudoeste 23 Sur 0 -- -- 23
2019-08-02 15:00:00 36.3 8 Noroeste 22 Oeste 0 -- -- 24
2019-08-02 14:00:00 35.3 5 Noroeste 18 Oeste 0 -- -- 25
2019-08-02 13:00:00 34.4 5 Sur 10 Oeste 0 -- -- 29
2019-08-02 12:00:00 30.9 3 Norte 9 Sur 0 -- -- 33
2019-08-02 11:00:00 28.5 4 Sudoeste 9 Sudoeste 0 -- -- 39
2019-08-02 10:00:00 25.9 2 Sudoeste 8 Sur 0 -- -- 44
2019-08-02 09:00:00 21.5 0 Calma 5 Este 0 -- -- 53
2019-08-02 08:00:00 17.9 3 Norte 5 Norte 0 -- -- 57
2019-08-02 07:00:00 18.3 3 Norte 6 Norte 0 -- -- 54
2019-08-02 06:00:00 18.8 0 Calma 5 Norte 0 -- -- 53
2019-08-02 05:00:00 19.9 2 Nordeste 4 Norte 0 -- -- 52
2019-08-02 04:00:00 21.2 4 Norte 5 Nordeste 0 -- -- 50
2019-08-02 03:00:00 22.1 4 Sudeste 14 Sur 0 -- -- 51
2019-08-02 02:00:00 23.8 8 Sur 22 Sudoeste 0 -- -- 49
2019-08-02 01:00:00 25.7 17 Sudoeste 24 Sudoeste 0 -- -- 50
2019-08-02 00:00:00 28.1 12 Sur 22 Sudoeste 0 -- -- 48
2019-08-01 23:00:00 29.9 11 Sudoeste 26 Sudoeste 0 -- -- 45
2019-08-01 22:00:00 30.1 6 Sudoeste 17 Sudoeste 0 -- -- 39
2019-08-01 21:00:00 34 9 Sudoeste 16 Sudoeste 0 -- -- 32
2019-08-01 20:00:00 36.2 13 Sudoeste 20 Sudoeste 0 -- -- 27
2019-08-01 19:00:00 36.6 8 Sudoeste 24 Sudoeste 0 -- -- 31
2019-08-01 18:00:00 36.6 12 Sudoeste 28 Oeste 0 -- -- 32
2019-08-01 17:00:00 35.9 12 Oeste 24 Oeste 0 -- -- 35
2019-08-01 16:00:00 35.4 10 Sudoeste 26 Sur 0 -- -- 39
2019-08-01 15:00:00 34.6 12 Sudoeste 22 Sur 0 -- -- 43
2019-08-01 14:00:00 32.8 9 Sudoeste 21 Sudoeste 0 -- -- 45
2019-08-01 13:00:00 31.3 9 Sudoeste 22 Sudoeste 0 -- -- 48
2019-08-01 12:00:00 29.5 5 Oeste 17 Sudoeste 0 -- -- 54
2019-08-01 11:00:00 28 6 Sudoeste 15 Sudoeste 0 -- -- 59
2019-08-01 10:00:00 26.3 8 Sudoeste 14 Sur 0 -- -- 65
2019-08-01 09:00:00 23.9 5 Sudoeste 8 Sur 0 -- -- 73
2019-08-01 08:00:00 20.8 4 Sudoeste 10 Sur 0 -- -- 79
2019-08-01 07:00:00 21.4 4 Sudeste 10 Sur 0 -- -- 77
2019-08-01 06:00:00 22.1 7 Sur 13 Sur 0 -- -- 76
2019-08-01 05:00:00 22.7 9 Sur 14 Sur 0 -- -- 74
2019-08-01 04:00:00 23.5 11 Sur 22 Sur 0 -- -- 72
2019-08-01 03:00:00 23.8 15 Sur 23 Sur 0 -- -- 69
2019-08-01 02:00:00 23.9 11 Sudoeste 21 Sudoeste 0 -- -- 69
2019-08-01 01:00:00 24.8 12 Sur 21 Sur 0 -- -- 67
2019-08-01 00:00:00 25.6 8 Sur 31 Sur 0 -- -- 63
2019-07-31 23:00:00 26.6 20 Sur 32 Sur 0 -- -- 60
2019-07-31 22:00:00 28.2 21 Sur 33 Sudeste 0 -- -- 55
2019-07-31 21:00:00 31 20 Sur 35 Sur 0 -- -- 47
2019-07-31 20:00:00 34.1 21 Sur 33 Sur 0 -- -- 38
2019-07-31 19:00:00 36.1 18 Sur 32 Sur 0 -- -- 33
2019-07-31 18:00:00 36.7 13 Sudoeste 32 Sudoeste 0 -- -- 30
2019-07-31 17:00:00 36.7 19 Sudoeste 33 Sudoeste 0 -- -- 32
2019-07-31 16:00:00 36.7 13 Sudoeste 26 Sudoeste 0 -- -- 32
2019-07-31 15:00:00 35.7 8 Oeste 17 Sudoeste 0 -- -- 32
2019-07-31 14:00:00 34.2 9 Oeste 19 Sudoeste 0 -- -- 34
2019-07-31 13:00:00 33.4 9 Sudoeste 23 Sudoeste 0 -- -- 37
2019-07-31 12:00:00 32 10 Sur 26 Sur 0 -- -- 42
2019-07-31 11:00:00 29.8 13 Sur 25 Sudoeste 0 -- -- 47
2019-07-31 10:00:00 26.9 12 Sur 18 Sur 0 -- -- 52
2019-07-31 09:00:00 22.4 2 Nordeste 6 Norte 0 -- -- 54
2019-07-31 08:00:00 18.9 2 Nordeste 8 Norte 0 -- -- 53
2019-07-31 07:00:00 19.6 4 Norte 7 Norte 0 -- -- 48
2019-07-31 06:00:00 19.2 3 Norte 7 Este 0 -- -- 44
2019-07-31 05:00:00 20.3 5 Norte 7 Norte 0 -- -- 41
2019-07-31 04:00:00 20.8 5 Norte 8 Norte 0 -- -- 35
2019-07-31 03:00:00 21.4 3 Norte 7 Norte 0 -- -- 32
2019-07-31 02:00:00 21.6 4 Nordeste 6 Norte 0 -- -- 31
2019-07-31 01:00:00 22.6 2 Sudoeste 5 Norte 0 -- -- 31
2019-07-31 00:00:00 24.5 0 Calma 9 Norte 0 -- -- 29
2019-07-30 23:00:00 26.1 5 Este 8 Este 0 -- -- 26
2019-07-30 22:00:00 30 3 Sudeste 12 Oeste 0 -- -- 23
2019-07-30 21:00:00 35.5 4 Oeste 17 Oeste 0 -- -- 19
2019-07-30 20:00:00 36.6 7 Oeste 21 Oeste 0 -- -- 21
2019-07-30 19:00:00 37.4 8 Sudoeste 19 Sudoeste 0 -- -- 21
2019-07-30 18:00:00 37.4 13 Sudoeste 22 Sudoeste 0 -- -- 22
2019-07-30 17:00:00 37 6 Sudoeste 23 Oeste 0 -- -- 22
2019-07-30 16:00:00 35.6 4 Sur 20 Noroeste 0 -- -- 25
2019-07-30 15:00:00 34.8 5 Nordeste 22 Este 0 -- -- 26
2019-07-30 14:00:00 33.5 7 Este 20 Norte 0 -- -- 27
2019-07-30 13:00:00 31.9 8 Norte 18 Norte 0 -- -- 29
2019-07-30 12:00:00 29.2 8 Norte 19 Nordeste 0 -- -- 31
2019-07-30 11:00:00 27.8 7 Nordeste 17 Nordeste 0 -- -- 34
2019-07-30 10:00:00 25.3 2 Norte 5 Norte 0 -- -- 44
2019-07-30 09:00:00 20.7 0 Calma 2 Norte 0 -- -- 60
2019-07-30 08:00:00 15.9 2 Norte 4 Norte 0 -- -- 65
2019-07-30 07:00:00 16.7 4 Norte 5 Norte 0 -- -- 62
2019-07-30 06:00:00 17.3 0 Calma 4 Nordeste 0 -- -- 68
2019-07-30 05:00:00 18.9 3 Norte 5 Norte 0 -- -- 60
2019-07-30 04:00:00 19.2 0 Calma 8 Norte 0 -- -- 62
2019-07-30 03:00:00 20.3 2 Norte 4 Norte 0 -- -- 56
2019-07-30 02:00:00 21.8 0 Calma 5 Sudeste 0 -- -- 56
2019-07-30 01:00:00 23.6 4 Sudeste 9 Este 0 -- -- 52
2019-07-30 00:00:00 25.7 4 Sur 8 Sudoeste 0 -- -- 47
2019-07-29 23:00:00 28.7 8 Sudoeste 24 Sudoeste 0 -- -- 42
2019-07-29 22:00:00 29.4 9 Sudoeste 15 Sudoeste 0 -- -- 34
2019-07-29 21:00:00 34.2 10 Oeste 21 Oeste 0 -- -- 25
2019-07-29 20:00:00 35.8 11 Oeste 24 Sudoeste 0 -- -- 24
2019-07-29 19:00:00 36.2 10 Sudoeste 21 Sudoeste 0 -- -- 24
2019-07-29 18:00:00 35.8 7 Oeste 23 Sudoeste 0 -- -- 24
2019-07-29 17:00:00 35.4 8 Oeste 24 Sur 0 -- -- 27
2019-07-29 16:00:00 34.4 12 Sudoeste 24 Oeste 0 -- -- 29
2019-07-29 15:00:00 33.3 8 Oeste 24 Sudoeste 0 -- -- 34
2019-07-29 14:00:00 31.5 8 Sur 17 Sudoeste 0 -- -- 39
2019-07-29 13:00:00 29.4 6 Sudoeste 16 Sudoeste 0 -- -- 47
2019-07-29 12:00:00 27.1 7 Sur 19 Sur 0 -- -- 54
2019-07-29 11:00:00 25 8 Sur 19 Sudoeste 0 -- -- 62
2019-07-29 10:00:00 23.1 7 Sur 13 Sudoeste 0 -- -- 67
2019-07-29 09:00:00 20.9 3 Sur 4 Sudeste 0 -- -- 73
2019-07-29 08:00:00 17.1 0 Calma 2 Noroeste 0 -- -- 79
2019-07-29 07:00:00 17.4 0 Calma 7 Sur 0 -- -- 77
2019-07-29 06:00:00 18 3 Sudeste 6 Sudoeste 0 -- -- 75
2019-07-29 05:00:00 18.9 4 Sudoeste 15 Sur 0 -- -- 75
2019-07-29 04:00:00 20.1 9 Sur 15 Sur 0 -- -- 73
2019-07-29 03:00:00 20.8 9 Sur 21 Sudoeste 0 -- -- 71
2019-07-29 02:00:00 21.9 12 Sudoeste 22 Sudoeste 0 -- -- 69
2019-07-29 01:00:00 23 17 Sudoeste 24 Sudoeste 0 -- -- 65
2019-07-29 00:00:00 24.5 10 Sudoeste 23 Sudoeste 0 -- -- 59
2019-07-28 23:00:00 26.6 15 Sudoeste 29 Sudoeste 0 -- -- 55
2019-07-28 22:00:00 28 6 Sudoeste 12 Sudoeste 0 -- -- 40
2019-07-28 21:00:00 31.6 6 Sudoeste 19 Sudoeste 0 -- -- 32
2019-07-28 20:00:00 32.9 8 Sudoeste 20 Oeste 0 -- -- 28
2019-07-28 19:00:00 33.1 8 Oeste 26 Sudoeste 0 -- -- 34
2019-07-28 18:00:00 33.5 13 Sur 31 Sur 0 -- -- 35
2019-07-28 17:00:00 32.8 12 Sur 27 Sudoeste 0 -- -- 37
2019-07-28 16:00:00 31.9 11 Sur 24 Sudoeste 0 -- -- 42
2019-07-28 15:00:00 31 6 Sudoeste 21 Sudoeste 0 -- -- 43
2019-07-28 14:00:00 29.4 8 Norte 15 Noroeste 0 -- -- 49
2019-07-28 13:00:00 27.3 7 Norte 16 Norte 0 -- -- 55
2019-07-28 12:00:00 25.7 5 Noroeste 13 Norte 0 -- -- 62
2019-07-28 11:00:00 23.7 4 Sur 10 Sudoeste 0 -- -- 71
2019-07-28 10:00:00 22.2 4 Sur 8 Sudoeste 0 -- -- 75
2019-07-28 09:00:00 20.8 3 Sudoeste 10 Sudoeste 0 -- -- 80
2019-07-28 08:00:00 20.4 4 Sudoeste 10 Sudoeste 0 -- -- 81
2019-07-28 07:00:00 20.4 6 Sudoeste 14 Sudoeste 0 -- -- 82
2019-07-28 06:00:00 20.5 9 Sudoeste 15 Sudoeste 0 -- -- 81
2019-07-28 05:00:00 20.7 6 Sudoeste 16 Sudoeste 0 -- -- 79
2019-07-28 04:00:00 20.8 10 Sudoeste 23 Sudoeste 0 -- -- 79
2019-07-28 03:00:00 21.2 14 Sudoeste 23 Sudoeste 0 -- -- 78
2019-07-28 02:00:00 21.4 12 Sudoeste 22 Sudoeste 0 -- -- 78
2019-07-28 01:00:00 21.5 16 Sudoeste 25 Sudoeste 0 -- -- 79
2019-07-28 00:00:00 21.9 19 Sudoeste 29 Sudoeste 0 -- -- 79
2019-07-27 23:00:00 22.7 17 Sudoeste 29 Sudoeste 0 -- -- 75
2019-07-26 12:00:00 -- -- -- -- -- -- -- -- --
2019-07-26 11:00:00 -- -- -- -- -- -- -- -- --
2019-07-26 10:00:00 23.6 11 Sudoeste 20 Sudoeste 0 -- -- 73
2019-07-26 09:00:00 21.8 9 Sudoeste 13 Sudoeste 0 -- -- 74
2019-07-26 08:00:00 19.3 3 Sudoeste 5 Sudoeste 0 -- -- 76
2019-07-26 07:00:00 19.7 3 Sudoeste 7 Sur 0 -- -- 73
2019-07-26 06:00:00 20.6 6 Sur 13 Sudoeste 0 -- -- 73
2019-07-26 05:00:00 21.1 10 Sudoeste 13 Sudoeste 0 -- -- 71
2019-07-26 04:00:00 21.5 10 Sudoeste 14 Sudoeste 0 -- -- 71
2019-07-26 03:00:00 22.3 6 Sudoeste 16 Sudoeste 0 -- -- 67
2019-07-26 02:00:00 23.3 9 Sur 17 Sur 0 -- -- 66
2019-07-26 01:00:00 24.3 9 Sur 18 Sudoeste 0 -- -- 63
2019-07-26 00:00:00 25.9 8 Sur 32 Sudoeste 0 -- -- 55
2019-07-25 23:00:00 28.1 16 Sudoeste 27 Sudoeste 0 -- -- 45
2019-07-25 22:00:00 30.1 18 Sudoeste 33 Sudoeste 0 -- -- 36
2019-07-25 21:00:00 32.6 19 Sudoeste 40 Sudoeste 0 -- -- 40
2019-07-25 20:00:00 34.9 21 Sudoeste 39 Oeste 0 -- -- 40
2019-07-25 19:00:00 37.8 17 Oeste 35 Oeste 0 -- -- 31
2019-07-25 18:00:00 38.3 17 Sudoeste 34 Sudoeste 0 -- -- 27
2019-07-25 17:00:00 38.8 14 Sudoeste 30 Sudoeste 0 -- -- 26
2019-07-25 16:00:00 38.2 13 Sudoeste 29 Sudoeste 0 -- -- 27
2019-07-25 15:00:00 36.5 12 Sudoeste 27 Sudoeste 0 -- -- 33
2019-07-25 14:00:00 35.3 8 Sudoeste 22 Sudoeste 0 -- -- 34
2019-07-25 13:00:00 33.8 8 Sudoeste 15 Sudoeste 0 -- -- 37
2019-07-25 12:00:00 31.7 6 Sur 12 Sur 0 -- -- 44
2019-07-25 11:00:00 29.2 5 Sur 13 Sudoeste 0 -- -- 53
2019-07-25 10:00:00 27.2 5 Sudoeste 11 Sudoeste 0 -- -- 61
2019-07-25 09:00:00 24.4 0 Calma 4 Este 0 -- -- 68
2019-07-25 08:00:00 20.4 0 Calma 3 Sudoeste 0 -- -- 74
2019-07-25 07:00:00 20.5 0 Calma 3 Sur 0 -- -- 72
2019-07-25 06:00:00 21.2 0 Calma 6 Sur 0 -- -- 70
2019-07-25 05:00:00 22.1 4 Sudoeste 8 Sur 0 -- -- 70
2019-07-25 04:00:00 23.6 4 Sur 8 Sur 0 -- -- 65
2019-07-25 03:00:00 25 4 Sur 12 Sudoeste 0 -- -- 62
2019-07-25 02:00:00 26.4 7 Sudoeste 12 Sudoeste 0 -- -- 58
2019-07-25 01:00:00 28.2 12 Sudoeste 21 Sudoeste 0 -- -- 56
2019-07-25 00:00:00 29.6 8 Sur 20 Sudoeste 0 -- -- 48
2019-07-24 23:00:00 31 12 Sur 32 Sur 0 -- -- 33
2019-07-24 22:00:00 33.1 9 Sudoeste 24 Sur 0 -- -- 31
2019-07-24 21:00:00 35.8 17 Sur 27 Sur 0 -- -- 27
2019-07-24 20:00:00 38.3 13 Sur 27 Sudoeste 0 -- -- 24
2019-07-24 19:00:00 39.3 15 Sur 31 Sur 0 -- -- 23
2019-07-24 18:00:00 39.6 21 Sudoeste 37 Sudoeste 0 -- -- 23
2019-07-24 17:00:00 39.8 19 Sudoeste 31 Sudoeste 0 -- -- 24
2019-07-24 16:00:00 38.6 12 Sudoeste 23 Oeste 0 -- -- 28
2019-07-24 15:00:00 37.2 11 Sur 19 Sudoeste 0 -- -- 32
2019-07-24 14:00:00 35.7 8 Sudoeste 16 Sudoeste 0 -- -- 36
2019-07-24 13:00:00 33.4 4 Sudoeste 17 Sudoeste 0 -- -- 42
2019-07-24 12:00:00 31.1 7 Oeste 20 Sudoeste 0 -- -- 53
2019-07-24 11:00:00 29.5 6 Sudoeste 12 Sur 0 -- -- 57
2019-07-24 10:00:00 28 4 Sudoeste 6 Sudoeste 0 -- -- 61
2019-07-24 09:00:00 25 0 Calma 3 Noroeste 0 -- -- 70
2019-07-24 08:00:00 21.4 0 Calma 5 Este 0 -- -- 73
2019-07-24 07:00:00 21.4 2 Nordeste 6 Este 0 -- -- 74
2019-07-24 06:00:00 22.3 2 Noroeste 4 Noroeste 0 -- -- 73
2019-07-24 05:00:00 22.6 4 Sudoeste 6 Sur 0 -- -- 75
2019-07-24 04:00:00 24.1 3 Sudoeste 7 Sur 0 -- -- 70
2019-07-24 03:00:00 25.4 6 Sur 19 Sudoeste 0 -- -- 68
2019-07-24 02:00:00 26.6 10 Sudoeste 16 Sudoeste 0 -- -- 65
2019-07-24 01:00:00 27.9 9 Sur 15 Sudoeste 0 -- -- 60
2019-07-24 00:00:00 29.3 9 Sudoeste 21 Sudoeste 0 -- -- 55
2019-07-23 23:00:00 31.6 13 Sudoeste 30 Sudoeste 0 -- -- 50
2019-07-23 22:00:00 33.5 14 Sudoeste 31 Sudoeste 0 -- -- 45
2019-07-23 21:00:00 35.5 21 Sur 33 Sur 0 -- -- 27
2019-07-23 20:00:00 37.4 23 Sur 39 Sur 0 -- -- 23
2019-07-23 19:00:00 38.8 21 Sur 35 Sudoeste 0 -- -- 25
2019-07-23 18:00:00 39.7 23 Sudoeste 40 Sudoeste 0 -- -- 25
2019-07-23 17:00:00 40.3 19 Sur 35 Sudoeste 0 -- -- 26
2019-07-23 16:00:00 38.9 12 Sur 27 Sudoeste 0 -- -- 30
2019-07-23 15:00:00 37.6 13 Sur 24 Sur 0 -- -- 32
2019-07-23 14:00:00 35.1 6 Oeste 17 Sudoeste 0 -- -- 37
2019-07-23 13:00:00 33.9 6 Sudoeste 17 Sudoeste 0 -- -- 40
2019-07-23 12:00:00 32.3 6 Oeste 13 Sur 0 -- -- 44
2019-07-23 11:00:00 30.9 6 Este 12 Este 0 -- -- 47
2019-07-23 10:00:00 28.4 6 Sudeste 10 Sudeste 0 -- -- 57
2019-07-23 09:00:00 25.2 2 Sudoeste 5 Nordeste 0 -- -- 68
2019-07-23 08:00:00 21.9 0 Calma 4 Nordeste 0 -- -- 70
2019-07-23 07:00:00 21.9 3 Este 4 Este 0 -- -- 70
2019-07-23 06:00:00 23.1 2 Este 9 Este 0 -- -- 70
2019-07-23 05:00:00 23.7 2 Sur 8 Sudoeste 0 -- -- 68
2019-07-23 04:00:00 23.7 5 Sudeste 9 Sudeste 0 -- -- 67
2019-07-23 03:00:00 25 2 Norte 9 Sur 0 -- -- 62
2019-07-23 02:00:00 26.2 6 Sudoeste 22 Sudoeste 0 -- -- 62
2019-07-23 01:00:00 27.5 12 Sur 19 Sur 0 -- -- 57
2019-07-23 00:00:00 28.8 12 Sur 23 Sudoeste 0 -- -- 52
2019-07-22 23:00:00 30.5 15 Sudoeste 26 Sur 0 -- -- 45
2019-07-22 22:00:00 32.5 12 Sudoeste 21 Sur 0 -- -- 41
2019-07-22 21:00:00 35.3 12 Sudoeste 20 Sudoeste 0 -- -- 36
2019-07-22 20:00:00 38.3 15 Sudoeste 22 Sudoeste 0 -- -- 31
2019-07-22 19:00:00 39.5 9 Sudoeste 19 Oeste 0 -- -- 31
2019-07-22 18:00:00 39.4 11 Sudoeste 22 Sudoeste 0 -- -- 33
2019-07-22 17:00:00 39.1 9 Oeste 23 Sur 0 -- -- 33
2019-07-22 16:00:00 38 10 Sudoeste 27 Sudoeste 0 -- -- 35
2019-07-22 15:00:00 37.1 8 Sudoeste 25 Sur 0 -- -- 37
2019-07-22 14:00:00 35.9 7 Sudoeste 15 Sur 0 -- -- 40
2019-07-22 13:00:00 33.7 5 Norte 14 Noroeste 0 -- -- 44
2019-07-22 12:00:00 31.9 8 Norte 17 Norte 0 -- -- 48
2019-07-22 11:00:00 30.4 6 Nordeste 13 Nordeste 0 -- -- 52
2019-07-22 10:00:00 28.8 5 Norte 9 Norte 0 -- -- 58
2019-07-22 09:00:00 26 2 Nordeste 4 Norte 0 -- -- 64
2019-07-22 08:00:00 22.6 3 Norte 5 Norte 0 -- -- 69
2019-07-22 07:00:00 22.2 0 Calma 7 Sudeste 0 -- -- 69
2019-07-22 06:00:00 23.2 5 Sudeste 8 Sudeste 0 -- -- 66
2019-07-22 05:00:00 24 0 Calma 5 Sudeste 0 -- -- 67
2019-07-22 04:00:00 24.6 3 Sudoeste 6 Oeste 0 -- -- 64
2019-07-22 03:00:00 25.5 5 Sudoeste 11 Sudoeste 0 -- -- 64
2019-07-22 02:00:00 26.4 8 Sudoeste 20 Sur 0 -- -- 61
2019-07-22 01:00:00 28 13 Sur 20 Sudoeste 0 -- -- 56
2019-07-22 00:00:00 29.6 11 Sudoeste 27 Sudoeste 0 -- -- 54
2019-07-21 23:00:00 31.6 18 Sudoeste 27 Sudoeste 0 -- -- 47
2019-07-21 22:00:00 34.5 13 Sudoeste 24 Sudoeste 0 -- -- 38
2019-07-21 21:00:00 37.3 15 Oeste 26 Oeste 0 -- -- 33
2019-07-21 20:00:00 38.8 13 Sudoeste 23 Sudoeste 0 -- -- 30
2019-07-21 19:00:00 39.9 6 Oeste 16 Oeste 0 -- -- 28
2019-07-21 18:00:00 39.6 9 Sudoeste 21 Sur 0 -- -- 28
2019-07-21 17:00:00 39.1 10 Sudoeste 22 Sudoeste 0 -- -- 29
2019-07-21 16:00:00 38.7 9 Sur 19 Sur 0 -- -- 30
2019-07-21 15:00:00 36.6 9 Sudoeste 21 Sudoeste 0 -- -- 33
2019-07-21 14:00:00 34.9 6 Sur 19 Sudoeste 0 -- -- 37
2019-07-21 13:00:00 33 9 Sudoeste 15 Sudoeste 0 -- -- 41
2019-07-21 12:00:00 31.1 6 Sur 15 Sudoeste 0 -- -- 46
2019-07-21 11:00:00 29.3 8 Sudoeste 16 Sudoeste 0 -- -- 51
2019-07-21 10:00:00 27.5 5 Sur 10 Sudoeste 0 -- -- 55
2019-07-21 09:00:00 25.5 3 Sur 5 Este 0 -- -- 57
2019-07-21 08:00:00 22.4 2 Este 8 Sudeste 0 -- -- 59
2019-07-21 07:00:00 23.2 3 Sur 11 Oeste 0 -- -- 58
2019-07-21 06:00:00 21.3 0 Calma 5 Este 0 -- -- 56
2019-07-21 05:00:00 21.9 4 Este 6 Este 0 -- -- 54
2019-07-21 04:00:00 23.3 0 Calma 4 Sudeste 0 -- -- 52
2019-07-21 03:00:00 24.9 2 Sudoeste 9 Sur 0 -- -- 51
2019-07-21 02:00:00 26.4 7 Sur 17 Sudoeste 0 -- -- 47
2019-07-21 01:00:00 28.2 15 Sudoeste 20 Sur 0 -- -- 42
2019-07-21 00:00:00 29.7 13 Sur 21 Sur 0 -- -- 40
2019-07-20 23:00:00 31.5 11 Sudoeste 19 Sudoeste 0 -- -- 36
2019-07-20 22:00:00 33.4 2 Sur 10 Sudoeste 0 -- -- 32
2019-07-20 21:00:00 36.4 10 Sudoeste 20 Sudoeste 0 -- -- 28
2019-07-20 20:00:00 38.8 13 Sudoeste 21 Sudoeste 0 -- -- 24
2019-07-20 19:00:00 39.7 7 Sudoeste 19 Oeste 0 -- -- 24
2019-07-20 18:00:00 40 7 Oeste 19 Oeste 0 -- -- 24
2019-07-20 17:00:00 39.8 13 Sudoeste 22 Sudoeste 0 -- -- 25
2019-07-20 16:00:00 38.9 7 Sudoeste 18 Oeste 0 -- -- 26
2019-07-20 15:00:00 37.7 7 Noroeste 22 Oeste 0 -- -- 27
2019-07-20 14:00:00 35.9 6 Oeste 19 Sudoeste 0 -- -- 30
2019-07-20 13:00:00 33.9 8 Sudoeste 14 Sudoeste 0 -- -- 36
2019-07-20 12:00:00 31.9 5 Sudoeste 13 Sur 0 -- -- 39
2019-07-20 11:00:00 30.4 6 Sudoeste 16 Sudoeste 0 -- -- 42
2019-07-20 10:00:00 28.2 3 Sur 7 Sur 0 -- -- 45
2019-07-20 09:00:00 24.3 0 Calma 6 Norte 0 -- -- 53
2019-07-20 08:00:00 20.6 2 Norte 4 Norte 0 -- -- 57
2019-07-20 07:00:00 20.6 0 Calma 4 Norte 0 -- -- 57
2019-07-20 06:00:00 21.1 0 Calma 4 Sur 0 -- -- 58
2019-07-20 05:00:00 21.9 0 Calma 4 Sudeste 0 -- -- 56
2019-07-20 04:00:00 22.8 4 Sur 7 Sur 0 -- -- 56
2019-07-20 03:00:00 24.3 3 Sudoeste 14 Sudoeste 0 -- -- 55
2019-07-20 02:00:00 25.8 11 Sur 18 Sur 0 -- -- 53
2019-07-20 01:00:00 27.4 12 Sudoeste 20 Sudoeste 0 -- -- 48
2019-07-20 00:00:00 29.1 11 Sudoeste 24 Sur 0 -- -- 42
2019-07-19 23:00:00 30.4 19 Sur 33 Sur 0 -- -- 34
2019-07-19 22:00:00 31.4 16 Sudoeste 26 Sudoeste 0 -- -- 32
2019-07-19 21:00:00 33.6 13 Sudoeste 29 Sudoeste 0 -- -- 30
2019-07-19 20:00:00 37 23 Sudoeste 34 Sudoeste 0 -- -- 27
2019-07-19 19:00:00 39.8 13 Sudoeste 26 Sudoeste 0 -- -- 25
2019-07-19 18:00:00 40.4 10 Sur 18 Sudoeste 0 -- -- 25
2019-07-19 17:00:00 40 9 Sudoeste 21 Noroeste 0 -- -- 25
2019-07-19 16:00:00 39.1 6 Sudoeste 21 Sudeste 0 -- -- 26
2019-07-19 15:00:00 37.5 9 Nordeste 17 Norte 0 -- -- 29
2019-07-19 14:00:00 36.2 6 Norte 16 Norte 0 -- -- 31
2019-07-19 13:00:00 34.5 10 Norte 26 Norte 0 -- -- 34
2019-07-19 12:00:00 32 11 Nordeste 21 Nordeste 0 -- -- 39
2019-07-19 11:00:00 30.1 11 Nordeste 17 Norte 0 -- -- 41
2019-07-19 10:00:00 28.4 5 Norte 9 Norte 0 -- -- 46
2019-07-19 09:00:00 24.6 0 Calma 7 Norte 0 -- -- 54
2019-07-19 08:00:00 19.7 3 Norte 6 Norte 0 -- -- 66
2019-07-19 07:00:00 19.4 4 Norte 6 Norte 0 -- -- 64
2019-07-19 06:00:00 19.8 3 Este 6 Norte 0 -- -- 62
2019-07-19 05:00:00 20.8 0 Calma 4 Norte 0 -- -- 56
2019-07-19 04:00:00 21.5 3 Este 5 Sudeste 0 -- -- 54
2019-07-19 03:00:00 23.2 3 Sudoeste 8 Sur 0 -- -- 52
2019-07-19 02:00:00 24.6 4 Sur 17 Sur 0 -- -- 44
2019-07-19 01:00:00 24.4 6 Sudoeste 12 Sur 0 -- -- 47
2019-07-19 00:00:00 27.3 10 Sur 15 Sudeste 0 -- -- 40